White Hall, Maryland
Current Conditions -  °F | °C
As of 6:05 PM on Tuesday 25 Nov 2014 (Local Time) from KDMW Reporting Station
Scattered Clouds Scattered Clouds  
Wind Chill: 46°   Ceiling: Unl
Heat Index: 46°   Visibility: 10mi
Dew Point: 28°   Wind: 0mph
Humidity: 50%   Direction: NA
Pressure: 30.08"   Gusts: NA
Location:  39.62°N, 76.63°W
Report Text: KDMW 252305Z AUTO 00000KT 10SM SCT090 08/M02 A3008 RMK AO2
Loading
Personal Weather Stations






























Interactive Weather Map New forecast layout! Learn more

10-Day Weather Forecast

Advertisements
Track Severe Weather on mobile